Weather at El Palmar Airport

Public forecast

Using degrees Celsius for public forecast. Weather courtesy of forecast.io.

Closest aviation weather report (METAR) to El Palmar Airport

Report is more than 6 hours old.

Closest report is El Libertador Airbase, 7.0 nm (12.9 km) WSW. Retrieved 2012/02/04 16:00 UTC (10 years ago):

SVBL 041600Z 09010KT 9999 BKN050 XX/XX Q1013

Closest aviation forecast (TAF) to El Palmar Airport

Forecast is more than 12 hours old.

Closest forecast is Arturo Michelena International Airport, 29.0 nm (53.6 km) W. Retrieved 2022/01/11 12:12 UTC (8 days ago):

TAF TAF SVVA 111700Z 1112/1212 09003KT 9999 FEW016 TX31/1118Z TN21/1208Z TEMPO 1116/1120 11002KT 9999 SCT016 TEMPO 1123/1303 05003KT SCT016